Dexter, Georgia
Current Conditions -  °F | °C
As of 6:55 AM on Thursday 27 Nov 2014 (Local Time) from KDBN Reporting Station
Clear Clear  
Wind Chill: 32°   Ceiling: Unl
Heat Index: 37°   Visibility: 10mi
Dew Point: 36°   Wind: 7mph
Humidity: 93%   Direction: 270°W
Pressure: 30.21"   Gusts: NA
Location:  32.43°N, 83.06°W
Report Text: KDBN 271155Z AUTO 27006KT 10SM CLR 03/02 A3021 RMK AO2
Loading
Personal Weather Stations






























Interactive Weather Map New forecast layout! Learn more

10-Day Weather Forecast

Advertisements
Track Severe Weather on mobile